Time;durP1;ratioP1;P1;durP2;ratioP2;P2;SDS_P1;SDS_P2;PMS_P1;PMS_P2;Temp;Humidity;BMP_temperature;BMP_pressure;BME280_temperature;BME280_humidity;BME280_pressure;Samples;Min_cycle;Max_cycle;Signal;HPM_P1;HPM_P2
2023/09/20 00:00:07;;;;;;;17.52;2.53;;;19.10;99.90;;;;;;10517362;28;20049;-36
2023/09/20 00:05:14;;;;;;;13.52;3.72;;;18.60;99.90;;;;;;10495274;28;20058;-35
2023/09/20 00:10:18;;;;;;;7.22;1.90;;;19.10;99.90;;;;;;10499503;28;20056;-35
2023/09/20 00:15:21;;;;;;;10.65;2.92;;;19.60;99.90;;;;;;10492378;28;20132;-34
2023/09/20 00:20:24;;;;;;;14.73;2.33;;;19.20;99.90;;;;;;10504373;28;20052;-42
2023/09/20 00:25:28;;;;;;;12.25;2.22;;;19.50;99.90;;;;;;10493684;28;20115;-34
2023/09/20 00:30:30;;;;;;;14.00;3.13;;;19.20;99.90;;;;;;10505982;28;20052;-38
2023/09/20 00:35:31;;;;;;;10.45;3.03;;;19.30;99.90;;;;;;10493435;28;20051;-38
2023/09/20 00:40:37;;;;;;;14.02;2.47;;;19.20;99.90;;;;;;10505858;28;20122;-32
2023/09/20 00:45:41;;;;;;;8.95;2.35;;;19.10;99.90;;;;;;10515604;28;20414;-33
2023/09/20 00:50:43;;;;;;;12.95;3.03;;;19.10;99.90;;;;;;10501095;28;20044;-33
2023/09/20 00:55:46;;;;;;;12.48;2.30;;;19.20;99.90;;;;;;10506869;28;20512;-34
2023/09/20 01:00:51;;;;;;;16.83;3.20;;;19.10;99.90;;;;;;10491197;28;20084;-40
2023/09/20 01:05:53;;;;;;;11.50;2.80;;;19.10;99.90;;;;;;10488196;28;20597;-33
2023/09/20 01:10:56;;;;;;;16.73;3.38;;;19.40;99.90;;;;;;10474522;28;20102;-32
2023/09/20 01:16:01;;;;;;;13.43;2.40;;;19.70;99.90;;;;;;10507925;28;20059;-32
2023/09/20 01:21:03;;;;;;;7.35;2.08;;;19.10;99.90;;;;;;10513659;28;20071;-37
2023/09/20 01:26:07;;;;;;;8.40;2.58;;;18.80;99.90;;;;;;10492855;28;20071;-34
2023/09/20 01:31:09;;;;;;;11.57;3.15;;;19.10;99.90;;;;;;10492885;28;20044;-34
2023/09/20 01:36:10;;;;;;;16.73;3.45;;;19.40;99.90;;;;;;10490214;28;20080;-33
2023/09/20 01:41:14;;;;;;;7.90;2.42;;;19.10;99.90;;;;;;10476951;28;20474;-33
2023/09/20 01:46:16;;;;;;;11.73;2.50;;;19.40;99.90;;;;;;10481689;28;20053;-33
2023/09/20 01:51:19;;;;;;;7.05;2.33;;;20.20;99.90;;;;;;10484485;28;20036;-35
2023/09/20 01:56:25;;;;;;;12.55;3.17;;;19.90;99.90;;;;;;10488883;28;20072;-33
2023/09/20 02:01:27;;;;;;;10.40;2.30;;;20.50;99.20;;;;;;10490713;28;20055;-33
2023/09/20 02:06:29;;;;;;;6.80;1.92;;;20.20;99.90;;;;;;10493536;28;20063;-33
2023/09/20 02:11:32;;;;;;;16.83;3.00;;;20.30;99.90;;;;;;10501105;28;20131;-33
2023/09/20 02:16:34;;;;;;;7.20;2.22;;;20.00;99.90;;;;;;10490854;28;20151;-34
2023/09/20 02:21:36;;;;;;;;;;;20.50;97.90;;;;;;10498277;28;20048;-34
2023/09/20 02:26:40;;;;;;;7.57;2.93;;;20.70;97.60;;;;;;10483446;28;19924;-38
2023/09/20 02:31:42;;;;;;;8.55;2.95;;;20.50;99.60;;;;;;10491187;28;20135;-33
2023/09/20 02:36:44;;;;;;;15.55;3.22;;;20.20;99.90;;;;;;10495543;28;20087;-35
2023/09/20 02:41:47;;;;;;;9.90;2.85;;;19.60;99.90;;;;;;10490673;28;20055;-37
2023/09/20 02:46:49;;;;;;;14.48;3.08;;;20.10;99.90;;;;;;10503394;28;20044;-37
2023/09/20 02:51:52;;;;;;;6.50;2.40;;;19.60;99.90;;;;;;10481578;28;20098;-32
2023/09/20 02:56:55;;;;;;;9.55;2.42;;;20.00;99.90;;;;;;10498221;28;20084;-34
2023/09/20 03:15:32;;;;;;;16.95;3.10;;;19.10;99.90;;;;;;10508831;27;20117;-34
2023/09/20 03:20:35;;;;;;;9.05;2.65;;;19.20;99.90;;;;;;10524553;28;20044;-33
2023/09/20 03:25:37;;;;;;;8.75;2.72;;;20.00;99.90;;;;;;10514580;28;20052;-37
2023/09/20 03:30:40;;;;;;;6.63;2.40;;;20.10;99.80;;;;;;10519570;28;20060;-38
2023/09/20 03:35:42;;;;;;;5.32;2.08;;;20.10;99.90;;;;;;10519660;28;20083;-35
2023/09/20 03:40:44;;;;;;;9.27;2.17;;;19.70;99.90;;;;;;10521948;28;20048;-32
2023/09/20 03:45:47;;;;;;;5.10;1.85;;;20.00;99.90;;;;;;10528738;28;20127;-32
2023/09/20 03:50:49;;;;;;;13.10;3.03;;;20.50;98.00;;;;;;10518537;28;20047;-37
2023/09/20 03:55:51;;;;;;;8.73;2.45;;;19.80;99.90;;;;;;10512129;28;20051;-32
2023/09/20 04:00:56;;;;;;;11.43;2.83;;;19.20;99.90;;;;;;10506773;28;20123;-38
2023/09/20 04:05:58;;;;;;;5.32;1.92;;;19.90;99.90;;;;;;10509276;28;20041;-33
2023/09/20 04:11:00;;;;;;;4.30;2.10;;;20.30;99.50;;;;;;10512572;28;20056;-40
2023/09/20 04:16:06;;;;;;;5.28;1.88;;;20.60;97.10;;;;;;10519238;28;20129;-36
2023/09/20 04:21:08;;;;;;;5.93;2.58;;;20.20;99.20;;;;;;10501185;28;20460;-34
2023/09/20 04:26:10;;;;;;;;;;;19.90;99.90;;;;;;10493780;28;20056;-35
2023/09/20 04:31:13;;;;;;;8.27;2.30;;;20.40;99.60;;;;;;10484731;28;19957;-33
2023/09/20 04:36:15;;;;;;;7.78;2.35;;;19.50;99.90;;;;;;10490017;28;20147;-32
2023/09/20 04:41:17;;;;;;;5.53;2.17;;;20.40;99.40;;;;;;10493101;28;20111;-39
2023/09/20 04:46:20;;;;;;;7.38;2.20;;;19.70;99.90;;;;;;10483784;28;20379;-32
2023/09/20 04:51:22;;;;;;;7.85;3.30;;;19.60;99.90;;;;;;10488126;28;20041;-31
2023/09/20 04:56:24;;;;;;;9.20;2.10;;;19.70;99.90;;;;;;10484844;28;20119;-36
2023/09/20 05:01:29;;;;;;;5.90;1.95;;;20.00;99.90;;;;;;10482880;28;20143;-35
2023/09/20 05:06:31;;;;;;;5.45;1.58;;;20.10;99.80;;;;;;10490196;28;20557;-35
2023/09/20 05:11:33;;;;;;;8.20;2.15;;;21.20;95.20;;;;;;10470394;28;20052;-32
2023/09/20 05:16:36;;;;;;;9.57;3.13;;;19.90;99.90;;;;;;10480629;28;20072;-34
2023/09/20 05:21:38;;;;;;;5.07;1.90;;;19.50;99.90;;;;;;10483317;28;20123;-35
2023/09/20 05:26:40;;;;;;;6.55;2.10;;;20.30;98.80;;;;;;10481032;28;20103;-33
2023/09/20 05:31:43;;;;;;;6.57;2.10;;;19.30;99.90;;;;;;10483021;28;20076;-33
2023/09/20 05:36:45;;;;;;;4.05;1.80;;;19.40;99.90;;;;;;10471031;28;20054;-32
2023/09/20 05:41:49;;;;;;;;;;;19.10;99.90;;;;;;10479311;28;20194;-36
2023/09/20 05:46:52;;;;;;;3.92;1.48;;;19.30;99.90;;;;;;10469233;28;19956;-33
2023/09/20 05:51:54;;;;;;;2.95;1.50;;;19.20;99.90;;;;;;10475857;28;20110;-35
2023/09/20 05:56:56;;;;;;;7.80;1.75;;;20.00;99.00;;;;;;10478778;28;20512;-36
2023/09/20 06:01:59;;;;;;;8.25;1.83;;;20.60;97.50;;;;;;10472284;28;20139;-28
2023/09/20 06:07:02;;;;;;;7.25;1.95;;;19.70;99.90;;;;;;10491805;28;20137;-29
2023/09/20 06:12:07;;;;;;;4.80;1.70;;;20.30;98.30;;;;;;10485030;28;20052;-33
2023/09/20 06:17:10;;;;;;;3.90;1.30;;;20.20;98.50;;;;;;10475503;28;20076;-34
2023/09/20 06:22:13;;;;;;;4.47;1.52;;;20.20;98.40;;;;;;10472662;28;20150;-36
2023/09/20 06:27:14;;;;;;;4.43;1.60;;;21.00;95.60;;;;;;10483639;28;20052;-33
2023/09/20 06:32:17;;;;;;;5.88;1.52;;;21.30;94.40;;;;;;10479252;28;20143;-39
2023/09/20 06:37:22;;;;;;;9.18;2.85;;;20.80;97.20;;;;;;10466484;28;20048;-37
2023/09/20 06:42:25;;;;;;;4.03;1.85;;;20.60;96.80;;;;;;10484385;28;20037;-33
2023/09/20 06:47:28;;;;;;;2.55;1.30;;;20.30;97.20;;;;;;10465851;28;20149;-36
2023/09/20 06:52:33;;;;;;;10.85;1.80;;;20.40;97.70;;;;;;10476120;28;20529;-38
2023/09/20 06:57:35;;;;;;;1.52;1.00;;;20.90;97.30;;;;;;10474149;28;20095;-35
2023/09/20 07:02:38;;;;;;;4.35;1.95;;;20.50;97.30;;;;;;10475316;28;20079;-33
2023/09/20 07:07:42;;;;;;;4.55;1.55;;;20.50;97.60;;;;;;10480086;28;20040;-41
2023/09/20 07:12:44;;;;;;;5.65;2.08;;;21.20;94.90;;;;;;10483852;28;20132;-34
2023/09/20 07:17:58;;;;;;;7.32;1.98;;;21.10;95.70;;;;;;10476215;28;20106;-33
2023/09/20 07:23:00;;;;;;;9.48;2.25;;;19.80;99.90;;;;;;10474496;28;20135;-36
2023/09/20 07:28:04;;;;;;;5.82;1.85;;;20.10;99.40;;;;;;10482551;28;20080;-34
2023/09/20 07:33:11;;;;;;;7.70;2.70;;;20.20;99.90;;;;;;10471450;28;20498;-34
2023/09/20 07:38:18;;;;;;;8.60;1.80;;;20.40;99.90;;;;;;10475238;28;20044;-39
2023/09/20 07:43:20;;;;;;;6.18;1.88;;;19.90;99.90;;;;;;10479989;28;20064;-38
2023/09/20 07:48:24;;;;;;;;;;;20.20;99.60;;;;;;10478319;28;20110;-31
2023/09/20 07:53:28;;;;;;;6.45;1.70;;;20.20;99.90;;;;;;10466343;28;19921;-38
2023/09/20 07:58:32;;;;;;;5.82;1.73;;;19.70;99.90;;;;;;10480524;28;20484;-45
2023/09/20 08:03:38;;;;;;;6.20;2.10;;;20.80;98.30;;;;;;10486456;28;20076;-33
2023/09/20 08:08:40;;;;;;;3.83;2.00;;;19.70;99.90;;;;;;10485912;28;20131;-33
2023/09/20 08:13:42;;;;;;;5.45;1.50;;;20.10;99.30;;;;;;10489720;28;20092;-35
2023/09/20 09:01:30;;;;;;;5.20;2.25;;;20.00;99.90;;;;;;10487587;28;20049;-35
2023/09/20 09:06:33;;;;;;;3.83;1.75;;;19.60;99.90;;;;;;10489814;28;20036;-33
2023/09/20 09:11:35;;;;;;;3.72;1.50;;;19.80;99.90;;;;;;10489150;28;20551;-37
2023/09/20 09:16:38;;;;;;;5.95;2.88;;;20.90;99.30;;;;;;10487539;28;20075;-33
2023/09/20 09:21:43;;;;;;;7.57;2.13;;;20.70;98.40;;;;;;10488194;28;20387;-33
2023/09/20 09:26:46;;;;;;;6.78;2.08;;;20.20;99.90;;;;;;10476673;28;20056;-32
2023/09/20 09:31:49;;;;;;;2.95;1.45;;;21.30;96.40;;;;;;10487056;28;20057;-34
2023/09/20 09:36:53;;;;;;;10.55;3.30;;;20.60;99.90;;;;;;10486573;28;20052;-35
2023/09/20 09:41:55;;;;;;;7.07;2.60;;;20.30;99.90;;;;;;10476625;28;20156;-44
2023/09/20 09:46:58;;;;;;;;;;;20.30;99.90;;;;;;10474641;28;20049;-33
2023/09/20 09:52:03;;;;;;;1.58;1.35;;;20.10;99.90;;;;;;10481117;28;19931;-34
2023/09/20 09:57:05;;;;;;;2.63;1.63;;;20.90;98.00;;;;;;10484477;28;20131;-34
2023/09/20 10:02:14;;;;;;;11.60;2.70;;;21.30;98.10;;;;;;10487446;28;20401;-35
2023/09/20 10:07:22;;;;;;;4.97;1.55;;;19.90;99.90;;;;;;10488577;28;20044;-38
2023/09/20 10:12:25;;;;;;;6.80;2.30;;;20.60;98.90;;;;;;10479254;28;20083;-36
2023/09/20 10:17:30;;;;;;;6.10;2.33;;;20.10;99.90;;;;;;10486541;28;20139;-37
2023/09/20 10:22:40;;;;;;;17.30;4.20;;;20.10;99.90;;;;;;10489952;28;20044;-31
2023/09/20 10:27:42;;;;;;;3.25;1.48;;;20.20;99.90;;;;;;10487351;28;20048;-36
2023/09/20 10:32:54;;;;;;;5.22;2.55;;;20.90;99.90;;;;;;10472526;28;20467;-34
2023/09/20 10:38:25;;;;;;;6.87;2.27;;;19.80;99.90;;;;;;10478374;28;20507;-37
2023/09/20 10:43:46;;;;;;;6.57;2.13;;;20.90;98.30;;;;;;10458084;28;20086;-33
2023/09/20 10:48:49;;;;;;;3.75;2.05;;;20.80;99.90;;;;;;10482781;28;20088;-36
2023/09/20 10:54:02;;;;;;;7.13;2.72;;;20.40;99.90;;;;;;10472342;28;20055;-34
2023/09/20 10:59:09;;;;;;;4.47;1.52;;;20.10;99.90;;;;;;10476788;28;20051;-35
2023/09/20 11:04:11;;;;;;;3.78;1.80;;;20.80;99.90;;;;;;10479195;28;20040;-34
2023/09/20 11:09:14;;;;;;;6.05;1.92;;;21.00;98.70;;;;;;10472041;28;20127;-35
2023/09/20 11:14:17;;;;;;;8.18;2.58;;;21.40;96.10;;;;;;10478230;28;20056;-39
2023/09/20 11:19:19;;;;;;;7.82;3.05;;;21.70;96.30;;;;;;10477039;28;20489;-35
2023/09/20 11:24:24;;;;;;;3.78;1.70;;;21.20;99.60;;;;;;10484558;28;20547;-36
2023/09/20 11:29:26;;;;;;;5.13;1.88;;;22.00;96.50;;;;;;10474863;28;20048;-33
2023/09/20 11:34:43;;;;;;;7.82;2.15;;;21.90;97.00;;;;;;10468375;28;20476;-35
2023/09/20 11:39:47;;;;;;;13.35;3.00;;;21.60;98.00;;;;;;10489685;28;20054;-33
2023/09/20 11:44:56;;;;;;;7.15;2.05;;;21.40;97.20;;;;;;10480716;28;20084;-39
2023/09/20 11:49:58;;;;;;;6.70;2.90;;;21.20;98.00;;;;;;10484731;28;20040;-32
2023/09/20 11:55:04;;;;;;;5.72;2.10;;;21.40;98.40;;;;;;10490065;28;20049;-40
2023/09/20 12:00:11;;;;;;;5.45;2.78;;;21.70;95.40;;;;;;10491619;28;20106;-35
2023/09/20 12:05:13;;;;;;;4.57;2.00;;;21.40;98.60;;;;;;10481055;28;20041;-40
2023/09/20 12:10:16;;;;;;;3.72;1.85;;;21.90;95.10;;;;;;10472023;28;20049;-34
2023/09/20 12:15:20;;;;;;;4.47;2.30;;;22.60;93.60;;;;;;10490509;28;20103;-37
2023/09/20 12:20:22;;;;;;;4.57;2.58;;;22.70;92.80;;;;;;10486595;28;20040;-34
2023/09/20 12:25:25;;;;;;;5.00;2.20;;;22.40;95.90;;;;;;10483885;28;20140;-32
2023/09/20 12:30:27;;;;;;;4.20;1.85;;;22.60;93.80;;;;;;10485272;28;20048;-34
2023/09/20 12:35:30;;;;;;;2.42;1.77;;;23.10;91.60;;;;;;10490287;28;20485;-37
2023/09/20 12:40:33;;;;;;;6.50;1.88;;;23.20;91.80;;;;;;10479234;28;20521;-33
2023/09/20 12:45:35;;;;;;;4.18;1.73;;;23.30;91.00;;;;;;10474023;28;20041;-36
2023/09/20 12:50:38;;;;;;;;;;;23.40;90.20;;;;;;10491805;28;20044;-33
2023/09/20 12:55:42;;;;;;;6.32;1.60;;;23.40;87.50;;;;;;10487423;28;19967;-36
2023/09/20 13:00:44;;;;;;;4.00;1.70;;;23.60;88.50;;;;;;10488011;28;20533;-35
2023/09/20 13:05:46;;;;;;;4.10;1.95;;;23.80;86.90;;;;;;10477766;28;20048;-35
2023/09/20 13:10:51;;;;;;;;;;;24.10;88.00;;;;;;10472423;28;20111;-34
2023/09/20 13:15:53;;;;;;;2.42;1.70;;;24.30;82.00;;;;;;10489822;28;20011;-38
2023/09/20 13:20:58;;;;;;;;;;;24.10;87.60;;;;;;10487922;28;20554;-38
2023/09/20 13:26:04;;;;;;;2.55;1.63;;;24.50;81.40;;;;;;10487426;28;19981;-38
2023/09/20 13:31:07;;;;;;;2.65;1.10;;;24.50;80.70;;;;;;10485309;28;20098;-34
2023/09/20 13:36:09;;;;;;;3.65;1.40;;;24.60;81.50;;;;;;10481609;28;20056;-31
2023/09/20 13:41:13;;;;;;;4.35;2.00;;;24.10;84.40;;;;;;10472847;28;20497;-32
2023/09/20 13:46:15;;;;;;;3.97;1.70;;;24.30;83.80;;;;;;10474683;28;20048;-35
2023/09/20 13:51:17;;;;;;;2.75;1.52;;;24.20;84.20;;;;;;10482429;28;20049;-36
2023/09/20 13:56:21;;;;;;;3.42;1.60;;;24.00;83.90;;;;;;10480839;28;20143;-36
2023/09/20 14:01:22;;;;;;;4.03;1.50;;;23.80;87.10;;;;;;10466637;28;20068;-39
2023/09/20 14:06:24;;;;;;;;;;;23.80;87.80;;;;;;10479405;28;20080;-34
2023/09/20 14:11:27;;;;;;;1.77;1.20;;;24.30;83.80;;;;;;10485223;28;20003;-32
2023/09/20 14:16:29;;;;;;;5.25;1.30;;;24.50;85.60;;;;;;10468413;28;20105;-36
2023/09/20 14:21:31;;;;;;;;;;;24.50;84.10;;;;;;10468354;28;20040;-38
2023/09/20 14:26:38;;;;;;;2.60;1.50;;;24.30;84.30;;;;;;10473902;28;19920;-35
2023/09/20 14:31:40;;;;;;;3.42;1.30;;;24.60;81.60;;;;;;10477570;28;20479;-40
2023/09/20 14:36:43;;;;;;;3.97;1.40;;;24.40;83.30;;;;;;10479829;28;20064;-32
2023/09/20 14:41:46;;;;;;;6.70;1.70;;;24.80;81.00;;;;;;10474934;28;20454;-37
2023/09/20 14:46:48;;;;;;;4.90;0.98;;;24.80;80.40;;;;;;10483273;28;20079;-33
2023/09/20 14:51:52;;;;;;;;;;;24.90;80.50;;;;;;10479644;28;20151;-38
2023/09/20 14:56:56;;;;;;;1.67;1.20;;;25.10;79.00;;;;;;10480169;28;20262;-35
2023/09/20 15:01:58;;;;;;;3.05;1.42;;;25.10;78.40;;;;;;10478992;28;20580;-35
2023/09/20 15:07:01;;;;;;;;;;;25.40;75.90;;;;;;10483212;28;20127;-37
2023/09/20 15:12:05;;;;;;;2.40;1.08;;;25.50;76.90;;;;;;10474422;28;20281;-35
2023/09/20 15:17:07;;;;;;;9.68;2.17;;;25.60;75.40;;;;;;10465798;28;20087;-37
2023/09/20 15:22:10;;;;;;;1.90;1.48;;;25.60;76.50;;;;;;10472885;28;20057;-32
2023/09/20 15:27:13;;;;;;;3.45;2.08;;;25.90;73.70;;;;;;10471024;28;20047;-35
2023/09/20 15:32:15;;;;;;;2.80;1.40;;;26.00;72.70;;;;;;10469324;28;20053;-32
2023/09/20 15:37:17;;;;;;;4.60;1.30;;;25.90;73.60;;;;;;10467990;28;20524;-34
2023/09/20 15:42:20;;;;;;;;;;;26.10;72.50;;;;;;10476896;28;20131;-37
2023/09/20 15:47:23;;;;;;;3.00;1.25;;;25.90;73.00;;;;;;10471535;28;19927;-41
2023/09/20 15:52:25;;;;;;;3.08;1.40;;;26.00;74.50;;;;;;10477716;28;20519;-41
2023/09/20 15:57:28;;;;;;;4.35;2.03;;;26.10;72.80;;;;;;10476051;28;20413;-32
2023/09/20 16:02:30;;;;;;;3.78;1.50;;;25.60;78.10;;;;;;10480815;28;20102;-36
2023/09/20 16:07:32;;;;;;;9.07;1.95;;;25.70;75.10;;;;;;10473824;28;20653;-36
2023/09/20 16:12:35;;;;;;;3.45;1.65;;;25.50;76.40;;;;;;10474898;28;20083;-39
2023/09/20 16:17:38;;;;;;;4.38;1.38;;;25.40;76.80;;;;;;10472177;28;20052;-35
2023/09/20 16:22:40;;;;;;;2.58;1.00;;;25.50;76.90;;;;;;10462183;28;20049;-36
2023/09/20 16:27:44;;;;;;;;;;;25.60;75.80;;;;;;10486318;28;20159;-34
2023/09/20 16:32:47;;;;;;;3.15;1.20;;;25.00;79.30;;;;;;10481397;28;20353;-38
2023/09/20 16:37:50;;;;;;;6.63;1.80;;;25.40;77.70;;;;;;10488668;28;20131;-37
2023/09/20 16:42:53;;;;;;;3.88;1.60;;;24.80;80.60;;;;;;10478617;28;20094;-34
2023/09/20 16:47:55;;;;;;;2.55;1.35;;;25.20;77.70;;;;;;10489653;28;20048;-31
2023/09/20 16:52:57;;;;;;;;;;;25.20;78.20;;;;;;10488324;28;20453;-33
2023/09/20 16:58:00;;;;;;;2.38;1.40;;;25.00;78.70;;;;;;10478911;28;20026;-36
2023/09/20 17:03:02;;;;;;;6.10;1.40;;;25.10;78.10;;;;;;10476207;28;20135;-38
2023/09/20 17:08:05;;;;;;;7.93;1.50;;;25.20;76.80;;;;;;10477189;28;20102;-35
2023/09/20 17:13:10;;;;;;;3.70;1.38;;;25.30;76.70;;;;;;10479553;28;20365;-38
2023/09/20 17:18:12;;;;;;;3.92;1.67;;;25.00;77.80;;;;;;10488259;28;20658;-35
2023/09/20 17:23:13;;;;;;;;;;;25.10;77.20;;;;;;10485502;28;20098;-34
2023/09/20 17:28:17;;;;;;;5.22;1.35;;;24.60;79.10;;;;;;10484660;28;19928;-37
2023/09/20 17:33:19;;;;;;;3.97;1.42;;;25.20;77.30;;;;;;10483448;28;20127;-35
2023/09/20 17:38:20;;;;;;;4.93;1.60;;;25.00;77.40;;;;;;10481122;28;20049;-35
2023/09/20 17:43:25;;;;;;;;;;;25.10;76.80;;;;;;10480335;28;20596;-37
2023/09/20 17:48:27;;;;;;;7.07;1.65;;;24.90;78.00;;;;;;10479481;28;19924;-34
2023/09/20 17:53:31;;;;;;;2.38;1.17;;;24.80;77.30;;;;;;10473139;28;20053;-32
2023/09/20 17:58:35;;;;;;;2.90;1.40;;;24.80;78.30;;;;;;10466491;28;20102;-39
2023/09/20 18:03:37;;;;;;;4.25;1.67;;;25.00;77.20;;;;;;10479745;28;20044;-35
2023/09/20 18:08:39;;;;;;;3.50;1.30;;;24.70;78.80;;;;;;10485720;28;20041;-32
2023/09/20 18:13:42;;;;;;;;;;;25.10;77.10;;;;;;10477557;28;20056;-33
2023/09/20 18:18:45;;;;;;;2.35;1.30;;;25.00;77.40;;;;;;10475953;28;19951;-35
2023/09/20 18:23:49;;;;;;;3.15;1.17;;;25.00;77.60;;;;;;10477785;28;20094;-39
2023/09/20 18:28:52;;;;;;;2.90;1.70;;;25.20;76.60;;;;;;10477977;28;20055;-36
2023/09/20 18:33:54;;;;;;;4.72;1.50;;;24.80;78.00;;;;;;10475162;28;20080;-35
2023/09/20 18:38:56;;;;;;;;;;;25.10;77.00;;;;;;10483837;28;20127;-35
2023/09/20 18:44:00;;;;;;;1.92;1.10;;;25.00;77.30;;;;;;10482373;28;19925;-39
2023/09/20 18:49:02;;;;;;;3.63;1.75;;;24.90;77.70;;;;;;10485053;28;20052;-37
2023/09/20 18:54:05;;;;;;;4.45;1.30;;;24.70;78.50;;;;;;10475156;28;20044;-34
2023/09/20 18:59:08;;;;;;;4.63;1.55;;;25.10;77.10;;;;;;10479529;28;20052;-37
2023/09/20 19:04:10;;;;;;;4.05;1.40;;;24.80;77.50;;;;;;10484756;28;20086;-38
2023/09/20 19:09:17;;;;;;;3.40;1.42;;;25.00;77.10;;;;;;10471768;28;20076;-33
2023/09/20 19:14:20;;;;;;;3.00;1.17;;;25.10;76.40;;;;;;10475191;28;20051;-38
2023/09/20 19:19:23;;;;;;;2.53;1.35;;;25.20;75.70;;;;;;10478920;28;20040;-38
2023/09/20 19:24:30;;;;;;;4.03;1.65;;;25.00;76.20;;;;;;10474356;28;20111;-37
2023/09/20 19:29:34;;;;;;;3.72;1.08;;;25.00;76.70;;;;;;10483781;28;20423;-36
2023/09/20 19:34:37;;;;;;;3.17;1.17;;;25.10;75.70;;;;;;10483307;28;20048;-34
2023/09/20 19:39:39;;;;;;;4.90;1.50;;;25.00;76.20;;;;;;10483773;28;20718;-35
2023/09/20 19:44:42;;;;;;;2.80;1.50;;;25.00;75.80;;;;;;10479287;28;20048;-33
2023/09/20 19:49:46;;;;;;;4.10;1.63;;;25.00;75.10;;;;;;10480190;28;20141;-36
2023/09/20 19:54:47;;;;;;;3.85;1.30;;;25.00;75.20;;;;;;10483827;28;20477;-33
2023/09/20 19:59:50;;;;;;;;;;;25.10;75.10;;;;;;10486576;28;20048;-36
2023/09/20 20:04:53;;;;;;;3.67;1.67;;;25.00;75.20;;;;;;10486651;28;20478;-38
2023/09/20 20:09:55;;;;;;;9.60;1.50;;;25.00;75.50;;;;;;10490987;28;20086;-33
2023/09/20 20:14:58;;;;;;;;;;;25.00;75.00;;;;;;10487151;28;20147;-31
2023/09/20 20:20:01;;;;;;;4.47;1.40;;;24.80;75.40;;;;;;10474645;28;19964;-36
2023/09/20 20:25:09;;;;;;;4.80;1.67;;;24.90;75.50;;;;;;10487095;28;20049;-39
2023/09/20 20:30:14;;;;;;;5.53;2.25;;;25.00;75.10;;;;;;10483122;28;20531;-35
2023/09/20 20:35:17;;;;;;;7.13;1.42;;;24.90;75.50;;;;;;10483566;28;20113;-37
2023/09/20 20:40:21;;;;;;;7.00;1.67;;;25.00;75.00;;;;;;10478154;28;20068;-35
2023/09/20 20:45:24;;;;;;;4.50;1.55;;;24.90;75.00;;;;;;10479567;28;20037;-34
2023/09/20 20:50:28;;;;;;;6.53;1.55;;;24.90;75.30;;;;;;10480105;28;20048;-33
2023/09/20 20:55:30;;;;;;;3.63;1.73;;;24.80;75.40;;;;;;10487035;28;20413;-32
2023/09/20 21:00:35;;;;;;;7.30;1.70;;;24.80;75.30;;;;;;10479093;28;20051;-33
2023/09/20 21:05:37;;;;;;;4.13;1.48;;;24.70;75.50;;;;;;10478928;28;20044;-33
2023/09/20 21:10:40;;;;;;;2.42;1.30;;;24.70;75.60;;;;;;10491923;28;20044;-31
2023/09/20 21:15:45;;;;;;;5.22;1.52;;;24.60;76.60;;;;;;10489994;28;20155;-37
2023/09/20 21:20:49;;;;;;;7.38;1.58;;;24.70;75.80;;;;;;10499608;28;20048;-36
2023/09/20 21:25:52;;;;;;;4.25;1.88;;;24.50;76.70;;;;;;10488347;28;20061;-35
2023/09/20 21:30:55;;;;;;;3.13;1.17;;;24.60;76.50;;;;;;10491996;28;20068;-33
2023/09/20 21:35:57;;;;;;;3.28;1.48;;;24.60;76.70;;;;;;10485627;28;20140;-36
2023/09/20 21:40:59;;;;;;;;;;;24.50;76.90;;;;;;10479691;28;20045;-33
2023/09/20 21:46:02;;;;;;;2.92;1.13;;;24.50;76.80;;;;;;10454377;28;20002;-42
2023/09/20 21:51:04;;;;;;;5.22;1.35;;;24.50;77.00;;;;;;10479170;28;20076;-36
2023/09/20 21:56:07;;;;;;;;;;;24.50;76.90;;;;;;10473737;28;20124;-37
2023/09/20 22:01:12;;;;;;;3.83;1.65;;;24.50;77.30;;;;;;10475183;28;19921;-36
2023/09/20 22:06:14;;;;;;;3.85;1.52;;;24.50;76.80;;;;;;10475158;28;20095;-40
2023/09/20 22:11:16;;;;;;;;;;;24.40;76.90;;;;;;10484924;28;20048;-36
2023/09/20 22:16:19;;;;;;;8.70;1.17;;;24.50;76.80;;;;;;10479945;28;20007;-35
2023/09/20 22:21:21;;;;;;;2.05;1.08;;;24.30;77.90;;;;;;10473374;28;20040;-29
2023/09/20 22:26:23;;;;;;;3.33;1.58;;;24.60;76.40;;;;;;10477265;28;20036;-37
2023/09/20 22:31:28;;;;;;;;;;;24.50;76.60;;;;;;10472296;28;20040;-36
2023/09/20 22:36:30;;;;;;;3.28;1.20;;;24.50;76.80;;;;;;10478248;28;19927;-37
2023/09/20 22:41:32;;;;;;;;;;;24.50;77.00;;;;;;10480171;28;20414;-33
2023/09/20 22:46:37;;;;;;;3.03;1.20;;;24.40;77.60;;;;;;10479992;28;20000;-34
2023/09/20 22:51:39;;;;;;;3.28;1.40;;;24.50;76.40;;;;;;10484573;28;20048;-35
2023/09/20 22:56:45;;;;;;;5.60;1.80;;;24.50;76.80;;;;;;10484076;28;21817;-33
2023/09/20 23:01:49;;;;;;;4.20;1.23;;;24.30;76.70;;;;;;10478947;28;20667;-34
2023/09/20 23:06:52;;;;;;;7.25;2.05;;;24.30;77.20;;;;;;10474815;28;20044;-32
2023/09/20 23:11:54;;;;;;;4.82;1.15;;;24.30;77.30;;;;;;10480803;28;20118;-36
2023/09/20 23:17:01;;;;;;;10.23;1.33;;;24.30;77.20;;;;;;10468300;28;20148;-35
2023/09/20 23:22:04;;;;;;;4.22;1.15;;;24.30;77.90;;;;;;10469300;28;20414;-36
2023/09/20 23:27:07;;;;;;;2.90;1.20;;;24.40;77.10;;;;;;10470214;28;20135;-42
2023/09/20 23:32:13;;;;;;;2.17;1.27;;;24.20;77.60;;;;;;10485436;28;20124;-33
2023/09/20 23:37:16;;;;;;;3.40;1.40;;;24.30;77.10;;;;;;10478579;28;20053;-35
2023/09/20 23:42:19;;;;;;;;;;;24.20;78.10;;;;;;10489619;28;20045;-35
2023/09/20 23:47:25;;;;;;;1.95;0.95;;;24.40;76.90;;;;;;10475434;28;19921;-37
2023/09/20 23:52:29;;;;;;;4.22;1.42;;;24.30;77.60;;;;;;10487759;28;20488;-32
2023/09/20 23:57:32;;;;;;;3.72;1.30;;;24.30;77.50;;;;;;10489325;28;20481;-35
